createdAt,value
2018-07-23T00:00:23.603Z,19.43
2018-07-23T00:00:57.486Z,17.10
2018-07-23T00:01:31.365Z,17.33
2018-07-23T00:02:05.260Z,20.13
2018-07-23T00:02:39.145Z,20.33
2018-07-23T00:03:13.333Z,17.40
2018-07-23T00:03:47.511Z,18.80
2018-07-23T00:04:21.717Z,21.67
2018-07-23T00:04:55.577Z,24.13
2018-07-23T00:05:30.050Z,23.03
2018-07-23T00:06:04.237Z,17.57
2018-07-23T00:06:38.133Z,24.90
2018-07-23T00:07:12.029Z,20.00
2018-07-23T00:07:45.892Z,17.30
2018-07-23T00:08:19.741Z,22.47
2018-07-23T00:08:53.605Z,18.73
2018-07-23T00:09:27.820Z,19.43
2018-07-23T00:10:01.723Z,19.47
2018-07-23T00:10:35.973Z,20.37
2018-07-23T00:11:09.587Z,18.20
2018-07-23T00:11:43.745Z,18.43
2018-07-23T00:12:17.613Z,18.83
2018-07-23T00:12:51.813Z,18.40
2018-07-23T00:13:26.007Z,21.83
2018-07-23T00:13:59.893Z,24.17
2018-07-23T00:14:33.803Z,21.70
2018-07-23T00:15:08.699Z,19.80
2018-07-23T00:15:42.911Z,17.60
2018-07-23T00:16:17.121Z,20.07
2018-07-23T00:16:50.999Z,22.60
2018-07-23T00:17:24.923Z,25.87
2018-07-23T00:17:58.795Z,18.00
2018-07-23T00:18:32.696Z,23.17
2018-07-23T00:19:06.955Z,22.00
2018-07-23T00:19:40.845Z,22.50
2018-07-23T00:20:14.891Z,19.70
2018-07-23T00:20:48.798Z,22.10
2018-07-23T00:21:22.674Z,22.40
2018-07-23T00:21:56.944Z,23.63
2018-07-23T00:22:30.587Z,21.13
2018-07-23T00:23:04.523Z,18.27
2018-07-23T00:23:38.706Z,23.70
2018-07-23T00:24:12.628Z,20.47
2018-07-23T00:24:46.510Z,22.93
2018-07-23T00:25:20.409Z,22.23
2018-07-23T00:25:54.307Z,19.67
2018-07-23T00:26:28.179Z,20.20
2018-07-23T00:27:02.047Z,21.73
2018-07-23T00:27:35.978Z,22.50
2018-07-23T00:28:09.883Z,22.97
2018-07-23T00:28:43.755Z,21.13
2018-07-23T00:29:17.963Z,23.37
2018-07-23T00:29:52.135Z,20.83
2018-07-23T00:30:26.008Z,23.50
2018-07-23T00:30:59.889Z,23.53
2018-07-23T00:31:33.765Z,20.23
2018-07-23T00:32:07.688Z,22.67
2018-07-23T00:32:41.587Z,21.07
2018-07-23T00:33:15.835Z,23.30
2018-07-23T00:33:49.853Z,24.60
2018-07-23T00:34:23.736Z,20.83
2018-07-23T00:34:57.573Z,24.00
2018-07-23T00:35:31.515Z,23.00
2018-07-23T00:36:05.487Z,22.27
2018-07-23T00:36:39.388Z,23.80
2018-07-23T00:37:13.281Z,20.00
2018-07-23T00:37:47.500Z,22.87
2018-07-23T00:38:21.515Z,24.17
2018-07-23T00:38:55.371Z,28.43
2018-07-23T00:39:29.594Z,25.23
2018-07-23T00:40:03.521Z,23.33
2018-07-23T00:40:37.356Z,22.13
2018-07-23T00:41:11.665Z,22.10
2018-07-23T00:41:45.837Z,21.47
2018-07-23T00:42:20.092Z,22.80
2018-07-23T00:42:53.998Z,19.80
2018-07-23T00:43:28.213Z,22.27
2018-07-23T00:44:02.095Z,23.00
2018-07-23T00:44:35.981Z,21.10
2018-07-23T00:45:10.450Z,26.30
2018-07-23T00:45:44.697Z,21.63
2018-07-23T00:46:18.923Z,20.73
2018-07-23T00:46:52.797Z,22.27
2018-07-23T00:47:26.759Z,21.77
2018-07-23T00:48:01.048Z,22.50
2018-07-23T00:48:34.920Z,20.73
2018-07-23T00:49:08.822Z,20.83
2018-07-23T00:49:43.073Z,23.50
2018-07-23T00:50:16.950Z,21.50
2018-07-23T00:50:57.359Z,21.23
2018-07-23T00:51:31.259Z,23.40
2018-07-23T00:52:05.677Z,22.07
2018-07-23T00:52:39.868Z,23.20
2018-07-23T00:53:13.776Z,22.60
2018-07-23T00:53:47.986Z,19.80
2018-07-23T00:54:21.858Z,23.07
2018-07-23T00:54:55.740Z,22.03
2018-07-23T00:55:29.633Z,22.70
2018-07-23T00:56:03.469Z,22.10
2018-07-23T00:56:37.724Z,22.00
2018-07-23T00:57:11.581Z,20.47
2018-07-23T00:57:45.604Z,21.77
2018-07-23T00:58:19.452Z,22.37
2018-07-23T00:58:53.339Z,22.90
2018-07-23T00:59:27.218Z,21.30
2018-07-23T01:00:01.415Z,20.07
2018-07-23T01:00:35.316Z,22.70
2018-07-23T01:01:09.547Z,20.03
2018-07-23T01:01:43.484Z,30.70
2018-07-23T01:02:17.782Z,20.83
2018-07-23T01:02:51.628Z,23.10
2018-07-23T01:03:25.486Z,25.00
2018-07-23T01:03:59.396Z,21.73
2018-07-23T01:04:33.604Z,18.57
2018-07-23T01:05:07.866Z,25.20
2018-07-23T01:05:42.115Z,22.20
2018-07-23T01:06:16.327Z,21.00
2018-07-23T01:06:50.247Z,19.57
2018-07-23T01:07:24.324Z,22.93
2018-07-23T01:07:58.221Z,24.33
2018-07-23T01:08:32.444Z,20.03
2018-07-23T01:09:09.204Z,26.63
2018-07-23T01:09:43.124Z,20.40
2018-07-23T01:10:17.360Z,20.50
2018-07-23T01:10:51.280Z,21.93
2018-07-23T01:11:25.172Z,20.90
2018-07-23T01:11:59.080Z,23.10
2018-07-23T01:12:34.698Z,19.47
2018-07-23T01:13:09.013Z,22.13
2018-07-23T01:13:43.082Z,20.03
2018-07-23T01:14:17.286Z,20.53
2018-07-23T01:14:51.470Z,19.93
2018-07-23T01:15:25.318Z,21.80
2018-07-23T01:15:59.560Z,22.20
2018-07-23T01:16:34.111Z,23.47
2018-07-23T01:17:08.090Z,25.40
2018-07-23T01:17:41.961Z,30.07
2018-07-23T01:18:15.870Z,22.50
2018-07-23T01:18:49.732Z,22.33
2018-07-23T01:19:23.653Z,20.30
2018-07-23T01:19:58.831Z,28.70
2018-07-23T01:20:33.054Z,20.90
2018-07-23T01:21:07.596Z,20.50
2018-07-23T01:21:41.826Z,20.20
2018-07-23T01:22:15.755Z,20.53
2018-07-23T01:22:49.644Z,22.10
2018-07-23T01:23:23.859Z,26.37
2018-07-23T01:23:57.738Z,19.83
2018-07-23T01:24:31.594Z,19.30
2018-07-23T01:25:06.158Z,25.07
2018-07-23T01:25:40.058Z,21.10
2018-07-23T01:26:14.723Z,23.17
2018-07-23T01:26:48.594Z,25.03
2018-07-23T01:27:22.798Z,22.23
2018-07-23T01:27:56.996Z,21.53
2018-07-23T01:28:30.846Z,22.00
2018-07-23T01:29:05.047Z,20.73
2018-07-23T01:29:39.295Z,19.90
2018-07-23T01:30:13.226Z,20.30
2018-07-23T01:30:47.067Z,22.17
2018-07-23T01:31:21.296Z,23.93
2018-07-23T01:31:55.167Z,20.47
2018-07-23T01:32:29.330Z,22.00
2018-07-23T01:33:03.207Z,24.70
2018-07-23T01:33:37.085Z,21.20
2018-07-23T01:34:10.996Z,23.63
2018-07-23T01:34:44.941Z,23.97
2018-07-23T01:35:18.847Z,22.97
2018-07-23T01:35:52.711Z,20.03
2018-07-23T01:36:26.554Z,21.33
2018-07-23T01:37:00.452Z,17.53
2018-07-23T01:37:34.362Z,23.10
2018-07-23T01:38:08.621Z,21.70
2018-07-23T01:38:42.574Z,19.17
2018-07-23T01:39:16.619Z,26.37
2018-07-23T01:39:50.472Z,18.63
2018-07-23T01:40:24.351Z,22.80
2018-07-23T01:40:58.535Z,20.63
2018-07-23T01:41:32.701Z,21.47
2018-07-23T01:42:06.941Z,20.90
2018-07-23T01:42:40.867Z,21.07
2018-07-23T01:43:15.054Z,18.43
2018-07-23T01:43:49.186Z,18.73
2018-07-23T01:44:23.489Z,23.90
2018-07-23T01:44:57.377Z,20.30
2018-07-23T01:45:31.276Z,22.00
2018-07-23T01:46:05.498Z,19.67
2018-07-23T01:46:39.701Z,18.33
2018-07-23T01:47:13.903Z,18.67
2018-07-23T01:47:47.781Z,23.90
2018-07-23T01:48:21.621Z,20.20
2018-07-23T01:48:55.481Z,20.23
2018-07-23T01:49:29.378Z,19.20
2018-07-23T01:50:03.288Z,22.87
2018-07-23T01:50:37.129Z,21.33
2018-07-23T01:51:11.033Z,23.30
2018-07-23T01:51:44.900Z,22.67
2018-07-23T01:52:18.767Z,21.13
2018-07-23T01:52:52.747Z,18.53
2018-07-23T01:53:26.609Z,18.30
2018-07-23T01:54:00.860Z,18.13
2018-07-23T01:54:35.199Z,18.90
2018-07-23T01:55:09.089Z,19.90
2018-07-23T01:55:42.957Z,19.77
2018-07-23T01:56:16.582Z,20.07
2018-07-23T01:56:50.693Z,19.00
2018-07-23T01:57:24.566Z,22.80
2018-07-23T01:57:58.460Z,18.60
2018-07-23T01:58:32.789Z,17.60
2018-07-23T01:59:06.987Z,17.10
2018-07-23T01:59:40.851Z,21.87
2018-07-23T02:00:15.065Z,18.83
2018-07-23T02:00:48.931Z,15.83
2018-07-23T02:01:22.769Z,18.60
2018-07-23T02:01:57.566Z,16.83
2018-07-23T02:02:31.752Z,15.23
2018-07-23T02:03:05.665Z,15.40
2018-07-23T02:03:40.360Z,17.90
2018-07-23T02:04:14.253Z,21.07
2018-07-23T02:04:48.135Z,15.80
2018-07-23T02:05:22.051Z,18.50
2018-07-23T02:05:55.927Z,15.13
2018-07-23T02:06:29.850Z,15.50
2018-07-23T02:07:04.088Z,18.10
2018-07-23T02:07:37.979Z,25.77
2018-07-23T02:08:11.930Z,18.47
2018-07-23T02:08:45.905Z,17.27
2018-07-23T02:09:20.117Z,13.90
2018-07-23T02:09:53.985Z,17.30
2018-07-23T02:10:27.937Z,16.77
2018-07-23T02:11:01.797Z,16.10
2018-07-23T02:11:35.756Z,17.20
2018-07-23T02:12:10.311Z,21.97
2018-07-23T02:12:44.215Z,18.43
2018-07-23T02:13:18.151Z,18.70
2018-07-23T02:13:52.051Z,16.60
2018-07-23T02:14:25.961Z,15.23
2018-07-23T02:14:59.873Z,17.90
2018-07-23T02:15:34.079Z,13.20
2018-07-23T02:16:07.968Z,23.63
2018-07-23T02:16:41.847Z,22.20
2018-07-23T02:17:15.737Z,17.50
2018-07-23T02:17:49.989Z,11.73
2018-07-23T02:19:27.135Z,16.17
2018-07-23T02:20:01.350Z,18.60
2018-07-23T02:20:35.287Z,20.53
2018-07-23T02:21:09.544Z,17.13
2018-07-23T02:21:43.433Z,15.03
2018-07-23T02:22:17.315Z,15.50
2018-07-23T02:22:51.839Z,13.70
2018-07-23T02:23:26.033Z,19.80
2018-07-23T02:23:59.945Z,25.67
2018-07-23T02:24:33.833Z,20.07
2018-07-23T02:25:07.749Z,20.43
2018-07-23T02:25:41.990Z,18.43
2018-07-23T02:26:15.996Z,20.10
2018-07-23T02:26:50.211Z,16.37
2018-07-23T02:27:24.444Z,21.17
2018-07-23T02:27:58.367Z,16.50
2018-07-23T02:28:32.240Z,17.20
2018-07-23T02:29:06.157Z,15.00
2018-07-23T02:29:40.086Z,22.53
2018-07-23T02:30:14.320Z,21.30
2018-07-23T02:30:48.573Z,14.97
2018-07-23T02:31:22.453Z,20.97
2018-07-23T02:31:56.369Z,16.27
2018-07-23T02:32:30.961Z,15.63
2018-07-23T02:33:05.233Z,19.70
2018-07-23T02:33:39.153Z,15.17
2018-07-23T02:34:13.008Z,14.17
2018-07-23T02:34:46.875Z,20.27
2018-07-23T02:35:20.739Z,16.80
2018-07-23T02:35:54.603Z,20.97
2018-07-23T02:36:28.425Z,18.00
2018-07-23T02:37:02.337Z,16.30
2018-07-23T02:37:36.211Z,17.90
2018-07-23T02:38:10.081Z,19.87
2018-07-23T02:38:43.985Z,14.93
2018-07-23T02:39:18.183Z,17.50
2018-07-23T02:39:52.089Z,15.40
2018-07-23T02:40:26.067Z,19.10
2018-07-23T02:41:00.272Z,22.70
2018-07-23T02:41:34.173Z,21.00
2018-07-23T02:42:08.313Z,14.67
2018-07-23T02:42:42.201Z,19.43
2018-07-23T02:43:16.418Z,19.47
2018-07-23T02:43:50.627Z,19.73
2018-07-23T02:44:24.489Z,21.33
2018-07-23T02:44:59.169Z,17.47
2018-07-23T02:45:33.023Z,18.53
2018-07-23T02:46:07.505Z,15.60
2018-07-23T02:46:41.369Z,20.00
2018-07-23T02:47:15.817Z,20.73
2018-07-23T02:47:50.095Z,19.53
2018-07-23T02:48:24.093Z,20.40
2018-07-23T02:48:57.965Z,18.20
2018-07-23T02:49:32.694Z,22.80
2018-07-23T02:50:07.067Z,20.33
2018-07-23T02:50:41.905Z,17.50
2018-07-23T02:51:16.398Z,17.60
2018-07-23T02:51:50.674Z,19.93
2018-07-23T02:52:24.912Z,17.50
2018-07-23T02:52:58.949Z,20.40
2018-07-23T02:53:32.812Z,22.40
2018-07-23T02:54:07.120Z,19.53
2018-07-23T02:54:41.365Z,20.00
2018-07-23T02:55:15.611Z,18.00
2018-07-23T02:55:50.149Z,20.13
2018-07-23T02:56:24.064Z,15.90
2018-07-23T02:56:57.957Z,14.97
2018-07-23T02:57:31.837Z,15.40
2018-07-23T02:58:05.787Z,15.93
2018-07-23T02:58:39.465Z,24.63
2018-07-23T02:59:14.583Z,19.43
2018-07-23T02:59:48.795Z,22.57
2018-07-23T03:00:23.358Z,21.30
2018-07-23T03:00:57.290Z,17.40
2018-07-23T03:01:31.268Z,19.67
2018-07-23T03:02:05.513Z,22.17
2018-07-23T03:02:39.729Z,15.33
2018-07-23T03:03:13.620Z,18.97
2018-07-23T03:03:47.528Z,18.77
2018-07-23T03:04:21.538Z,18.20
2018-07-23T03:04:55.480Z,16.63
2018-07-23T03:05:29.418Z,18.47
2018-07-23T03:06:03.615Z,24.53
2018-07-23T03:06:38.513Z,23.70
2018-07-23T03:07:12.781Z,20.40
2018-07-23T03:07:46.711Z,22.60
2018-07-23T03:08:20.617Z,27.87
2018-07-23T03:08:55.100Z,21.83
2018-07-23T03:09:29.343Z,30.20
2018-07-23T03:10:03.225Z,28.83
2018-07-23T03:10:37.433Z,23.23
2018-07-23T03:11:11.431Z,17.13
2018-07-23T03:11:45.348Z,22.77
2018-07-23T03:12:19.738Z,18.40
2018-07-23T03:12:53.929Z,18.10
2018-07-23T03:13:27.862Z,17.17
2018-07-23T03:14:02.548Z,16.43
2018-07-23T03:14:37.186Z,21.93
2018-07-23T03:15:11.491Z,18.87
2018-07-23T03:15:45.414Z,19.27
2018-07-23T03:16:19.807Z,22.00
2018-07-23T03:16:54.169Z,17.40
2018-07-23T03:17:28.778Z,24.93
2018-07-23T03:18:03.099Z,22.83
2018-07-23T03:18:36.976Z,27.70
2018-07-23T03:19:10.860Z,26.60
2018-07-23T03:19:44.725Z,19.27
2018-07-23T03:20:18.676Z,22.90
2018-07-23T03:20:53.070Z,19.33
2018-07-23T03:21:26.946Z,20.20
2018-07-23T03:22:01.230Z,18.83
2018-07-23T03:22:35.607Z,19.27
2018-07-23T03:23:09.468Z,19.83
2018-07-23T03:23:43.672Z,21.10
2018-07-23T03:24:17.645Z,18.00
2018-07-23T03:24:51.520Z,15.90
2018-07-23T03:25:25.436Z,24.53
2018-07-23T03:25:59.337Z,19.27
2018-07-23T03:26:33.223Z,19.50
2018-07-23T03:27:07.959Z,18.10
2018-07-23T03:27:41.814Z,25.70
2018-07-23T03:28:15.727Z,19.17
2018-07-23T03:28:49.625Z,20.30
2018-07-23T03:29:23.615Z,24.03
2018-07-23T03:29:57.837Z,25.00
2018-07-23T03:30:31.691Z,18.50
2018-07-23T03:31:06.288Z,18.40
2018-07-23T03:31:40.506Z,20.93
2018-07-23T03:32:14.712Z,21.40
2018-07-23T03:32:49.033Z,20.93
2018-07-23T03:33:22.933Z,18.80
2018-07-23T03:33:56.825Z,18.57
2018-07-23T03:34:30.716Z,15.37
2018-07-23T03:35:04.717Z,18.80
2018-07-23T03:35:38.609Z,26.57
2018-07-23T03:36:12.830Z,19.77
2018-07-23T03:36:46.776Z,19.90
2018-07-23T03:37:21.023Z,21.93
2018-07-23T03:37:54.961Z,16.50
2018-07-23T03:38:29.185Z,20.60
2018-07-23T03:39:03.091Z,20.70
2018-07-23T03:39:36.962Z,20.90
2018-07-23T03:40:10.898Z,19.00
2018-07-23T03:40:44.792Z,19.90
2018-07-23T03:41:18.707Z,25.33
2018-07-23T03:41:52.621Z,24.20
2018-07-23T03:42:26.457Z,21.67
2018-07-23T03:43:00.369Z,20.57
2018-07-23T03:43:34.670Z,21.53
2018-07-23T03:44:08.934Z,24.63
2018-07-23T03:44:43.304Z,22.03
2018-07-23T03:45:17.198Z,21.53
2018-07-23T03:45:51.382Z,25.50
2018-07-23T03:46:25.286Z,23.93
2018-07-23T03:46:59.576Z,20.70
2018-07-23T03:47:33.430Z,30.80
2018-07-23T03:48:07.412Z,15.83
2018-07-23T03:48:41.668Z,14.40
2018-07-23T03:49:15.581Z,22.13
2018-07-23T03:49:49.475Z,20.93
2018-07-23T03:50:23.325Z,21.90
2018-07-23T03:50:57.734Z,21.97
2018-07-23T03:51:31.672Z,18.27
2018-07-23T03:52:06.108Z,19.23
2018-07-23T03:52:40.020Z,15.60
2018-07-23T03:53:13.926Z,17.57
2018-07-23T03:53:47.780Z,21.20
2018-07-23T03:54:22.060Z,15.63
2018-07-23T03:54:55.920Z,16.30
2018-07-23T03:55:30.136Z,13.93
2018-07-23T03:56:04.000Z,18.27
2018-07-23T03:56:38.234Z,23.50
2018-07-23T03:57:12.134Z,20.57
2018-07-23T03:57:46.313Z,19.53
2018-07-23T03:58:20.482Z,12.93
2018-07-23T03:58:54.344Z,18.97
2018-07-23T03:59:28.222Z,22.70
2018-07-23T04:00:02.439Z,20.40
2018-07-23T04:00:36.620Z,21.77
2018-07-23T04:01:10.499Z,24.50
2018-07-23T04:01:44.410Z,18.57
2018-07-23T04:02:18.588Z,15.90
2018-07-23T04:02:52.800Z,18.70
2018-07-23T04:03:26.719Z,15.20
2018-07-23T04:04:00.613Z,18.67
2018-07-23T04:04:34.495Z,21.97
2018-07-23T04:05:08.786Z,16.03
2018-07-23T04:05:43.008Z,13.07
2018-07-23T04:06:16.873Z,15.37
2018-07-23T04:06:50.798Z,15.30
2018-07-23T04:07:24.698Z,18.80
2018-07-23T04:07:58.556Z,21.77
2018-07-23T04:08:32.769Z,24.20
2018-07-23T04:09:08.493Z,14.90
2018-07-23T04:09:42.699Z,18.33
2018-07-23T04:10:16.592Z,14.93
2018-07-23T04:10:50.554Z,19.43
2018-07-23T04:11:25.620Z,18.70
2018-07-23T04:11:59.530Z,13.70
2018-07-23T04:12:33.790Z,14.00
2018-07-23T04:13:07.716Z,18.03
2018-07-23T04:13:41.934Z,15.40
2018-07-23T04:14:16.080Z,17.67
2018-07-23T04:14:50.283Z,19.80
2018-07-23T04:15:24.508Z,12.53
2018-07-23T04:15:58.442Z,15.50
2018-07-23T04:16:32.656Z,15.00
2018-07-23T04:17:06.858Z,15.77
2018-07-23T04:17:41.264Z,14.20
2018-07-23T04:18:15.134Z,12.60
2018-07-23T04:18:49.358Z,15.60
2018-07-23T04:19:23.235Z,15.03
2018-07-23T04:19:57.121Z,17.50
2018-07-23T04:20:32.313Z,22.93
2018-07-23T04:21:06.617Z,22.73
2018-07-23T04:21:40.866Z,16.37
2018-07-23T04:22:14.748Z,18.20
2018-07-23T04:22:48.979Z,13.70
2018-07-23T04:23:22.854Z,17.67
2018-07-23T04:23:56.794Z,18.83
2018-07-23T04:24:30.682Z,15.90
2018-07-23T04:25:04.617Z,15.33
2018-07-23T04:25:38.530Z,12.20
2018-07-23T04:26:12.736Z,17.57
2018-07-23T04:26:46.629Z,13.40
2018-07-23T04:27:20.566Z,14.33
2018-07-23T04:27:54.436Z,17.97
2018-07-23T04:28:28.313Z,16.00
2018-07-23T04:29:02.204Z,9.50
2018-07-23T04:29:36.408Z,11.03
2018-07-23T04:30:10.589Z,14.90
2018-07-23T04:30:44.811Z,8.90
2018-07-23T04:31:19.032Z,18.30
2018-07-23T04:31:52.948Z,12.63
2018-07-23T04:32:26.924Z,10.90
2018-07-23T04:33:00.880Z,15.30
2018-07-23T04:33:34.758Z,11.47
2018-07-23T04:34:09.040Z,11.63
2018-07-23T04:34:42.905Z,13.30
2018-07-23T04:35:16.746Z,10.40
2018-07-23T04:35:50.630Z,9.23
2018-07-23T04:36:24.496Z,11.83
2018-07-23T04:36:58.344Z,11.13
2018-07-23T04:37:32.271Z,13.13
2018-07-23T04:38:06.160Z,13.97
2018-07-23T04:38:40.028Z,12.80
2018-07-23T04:39:14.248Z,11.23
2018-07-23T04:39:48.149Z,10.83
2018-07-23T04:40:22.434Z,10.90
2018-07-23T04:40:56.649Z,9.27
2018-07-23T04:41:30.502Z,9.70
2018-07-23T04:42:04.732Z,15.00
2018-07-23T04:42:38.999Z,15.30
2018-07-23T04:43:13.214Z,12.03
2018-07-23T04:43:47.164Z,10.63
2018-07-23T04:44:21.053Z,11.90
2018-07-23T04:44:55.266Z,10.00
2018-07-23T04:45:29.141Z,10.53
2018-07-23T04:46:03.004Z,7.80
2018-07-23T04:46:36.878Z,15.60
2018-07-23T04:47:10.810Z,12.17
2018-07-23T04:47:44.734Z,10.37
2018-07-23T04:48:18.614Z,13.33
2018-07-23T04:48:52.508Z,9.73
2018-07-23T04:49:26.372Z,10.03
2018-07-23T04:50:00.301Z,13.60
2018-07-23T04:50:34.198Z,11.90
2018-07-23T04:51:08.566Z,12.10
2018-07-23T04:51:42.801Z,8.77
2018-07-23T04:52:16.652Z,7.70
2018-07-23T04:52:50.531Z,9.70
2018-07-23T04:53:24.805Z,8.70
2018-07-23T04:53:58.992Z,7.23
2018-07-23T04:54:33.215Z,7.67
2018-07-23T04:55:07.453Z,11.93
2018-07-23T04:55:41.640Z,10.37
2018-07-23T04:56:15.580Z,10.67
2018-07-23T04:56:49.374Z,8.60
2018-07-23T04:57:23.366Z,10.60
2018-07-23T04:57:57.602Z,9.83
2018-07-23T04:58:31.468Z,13.33
2018-07-23T04:59:05.336Z,10.13
2018-07-23T04:59:39.528Z,10.40
2018-07-23T05:00:13.753Z,10.30
2018-07-23T05:00:47.966Z,11.03
2018-07-23T05:01:21.858Z,10.03
2018-07-23T05:01:55.763Z,9.17
2018-07-23T05:02:29.992Z,12.60
2018-07-23T05:03:04.555Z,8.60
2018-07-23T05:03:38.440Z,12.23
2018-07-23T05:04:12.640Z,10.63
2018-07-23T05:04:46.830Z,10.60
2018-07-23T05:05:21.019Z,9.67
2018-07-23T05:05:55.240Z,11.00
2018-07-23T05:06:29.100Z,8.13
2018-07-23T05:07:02.954Z,9.10
2018-07-23T05:07:37.244Z,11.17
2018-07-23T05:08:11.166Z,11.70
2018-07-23T05:08:45.437Z,9.03
2018-07-23T05:09:19.482Z,9.97
2018-07-23T05:09:53.400Z,11.50
2018-07-23T05:10:27.270Z,11.00
2018-07-23T05:11:01.140Z,13.27
2018-07-23T05:11:35.352Z,9.57
2018-07-23T05:12:09.238Z,8.23
2018-07-23T05:12:43.130Z,9.77
2018-07-23T05:13:17.113Z,10.40
2018-07-23T05:13:50.996Z,9.77
2018-07-23T05:14:24.903Z,10.67
2018-07-23T05:14:58.760Z,10.63
2018-07-23T05:15:33.014Z,9.47
2018-07-23T05:16:06.989Z,10.67
2018-07-23T05:16:41.132Z,8.13
2018-07-23T05:17:15.547Z,7.57
2018-07-23T05:17:49.814Z,7.30
2018-07-23T05:18:23.708Z,7.97
2018-07-23T05:18:57.586Z,7.53
2018-07-23T05:19:31.806Z,9.43
2018-07-23T05:20:05.784Z,10.70
2018-07-23T05:20:39.695Z,9.80
2018-07-23T05:21:13.638Z,8.47
2018-07-23T05:21:47.502Z,8.53
2018-07-23T05:22:21.405Z,6.43
2018-07-23T05:22:55.361Z,7.27
2018-07-23T05:23:29.242Z,9.23
2018-07-23T05:24:03.573Z,13.70
2018-07-23T05:24:37.585Z,11.70
2018-07-23T05:25:11.912Z,12.00
2018-07-23T05:25:45.795Z,7.07
2018-07-23T05:26:19.787Z,8.37
2018-07-23T05:26:53.854Z,9.47
2018-07-23T05:27:27.727Z,9.27
2018-07-23T05:28:01.619Z,9.23
2018-07-23T05:28:35.552Z,8.47
2018-07-23T05:29:09.548Z,8.30
2018-07-23T05:29:43.768Z,6.43
2018-07-23T05:30:17.645Z,6.63
2018-07-23T05:30:51.560Z,13.33
2018-07-23T05:31:25.463Z,9.17
2018-07-23T05:31:59.350Z,9.03
2018-07-23T05:32:33.550Z,7.07
2018-07-23T05:33:07.617Z,6.93
2018-07-23T05:33:41.526Z,8.40
2018-07-23T05:34:15.792Z,6.23
2018-07-23T05:34:49.750Z,7.73
2018-07-23T05:35:23.641Z,8.37
2018-07-23T05:35:57.514Z,5.33
2018-07-23T05:36:31.786Z,6.80
2018-07-23T05:37:06.372Z,10.97
2018-07-23T05:37:40.434Z,14.10
2018-07-23T05:38:14.684Z,6.20
2018-07-23T05:38:48.952Z,11.83
2018-07-23T05:39:23.168Z,7.73
2018-07-23T05:39:57.358Z,7.50
2018-07-23T05:40:31.540Z,10.63
2018-07-23T05:41:05.458Z,11.50
2018-07-23T05:41:39.722Z,8.83
2018-07-23T05:42:13.596Z,12.13
2018-07-23T05:42:47.824Z,7.53
2018-07-23T05:43:21.686Z,11.00
2018-07-23T05:43:56.330Z,15.40
2018-07-23T05:44:30.466Z,16.17
2018-07-23T05:45:04.682Z,8.53
2018-07-23T05:45:38.848Z,9.77
2018-07-23T05:46:12.760Z,7.67
2018-07-23T05:46:46.596Z,7.80
2018-07-23T05:47:20.844Z,9.77
2018-07-23T05:47:54.750Z,8.63
2018-07-23T05:48:28.976Z,8.40
2018-07-23T05:49:03.224Z,7.73
2018-07-23T05:49:37.560Z,10.83
2018-07-23T05:50:11.542Z,7.53
2018-07-23T05:50:45.778Z,8.03
2018-07-23T05:51:19.634Z,8.37
2018-07-23T05:51:53.530Z,9.23
2018-07-23T05:52:27.720Z,8.77
2018-07-23T05:53:02.236Z,11.83
2018-07-23T05:53:36.580Z,8.70
2018-07-23T05:54:10.644Z,8.00
2018-07-23T05:54:44.946Z,9.00
2018-07-23T05:55:18.840Z,8.93
2018-07-23T05:55:53.084Z,6.90
2018-07-23T05:56:27.622Z,7.07
2018-07-23T05:57:01.512Z,6.40
2018-07-23T05:57:35.844Z,9.37
2018-07-23T05:58:09.848Z,8.07
2018-07-23T05:58:43.747Z,7.73
2018-07-23T05:59:17.712Z,4.53
2018-07-23T05:59:51.586Z,5.70
2018-07-23T06:00:25.476Z,8.87
2018-07-23T06:00:59.329Z,7.40
2018-07-23T06:01:33.390Z,5.37
2018-07-23T06:02:07.692Z,7.17
2018-07-23T06:02:41.930Z,6.83
2018-07-23T06:03:15.824Z,7.30
2018-07-23T06:03:49.708Z,12.33
2018-07-23T06:04:23.632Z,7.70
2018-07-23T06:04:57.464Z,5.87
2018-07-23T06:05:31.386Z,12.57
2018-07-23T06:06:05.422Z,5.97
2018-07-23T06:06:39.330Z,7.17
2018-07-23T06:07:13.394Z,7.00
2018-07-23T06:07:48.026Z,7.33
2018-07-23T06:08:21.902Z,7.40
2018-07-23T06:08:55.774Z,7.03
2018-07-23T06:09:30.084Z,5.93
2018-07-23T06:10:04.422Z,4.30
2018-07-23T06:10:38.658Z,9.90
2018-07-23T06:11:12.940Z,10.20
2018-07-23T06:11:46.886Z,9.73
2018-07-23T06:12:21.126Z,7.13
2018-07-23T06:12:55.496Z,7.27
2018-07-23T06:13:29.465Z,7.00
2018-07-23T06:14:03.592Z,11.70
2018-07-23T06:14:37.590Z,7.47
2018-07-23T06:15:11.760Z,6.67
2018-07-23T06:15:45.974Z,7.27
2018-07-23T06:16:19.940Z,7.73
2018-07-23T06:16:54.166Z,8.30
2018-07-23T06:17:28.290Z,7.50
2018-07-23T06:18:02.470Z,14.23
2018-07-23T06:18:36.656Z,9.00
2018-07-23T06:19:10.904Z,7.70
2018-07-23T06:19:45.167Z,7.53
2018-07-23T06:20:19.005Z,4.87
2018-07-23T06:20:52.937Z,6.20
2018-07-23T06:21:26.820Z,7.23
2018-07-23T06:22:01.038Z,7.07
2018-07-23T06:22:35.290Z,6.40
2018-07-23T06:23:09.166Z,9.60
2018-07-23T06:23:43.053Z,8.37
2018-07-23T06:24:16.932Z,4.60
2018-07-23T06:24:50.866Z,9.13
2018-07-23T06:25:24.847Z,7.63
2018-07-23T06:25:59.568Z,11.10
2018-07-23T06:26:33.428Z,11.30
2018-07-23T06:27:07.938Z,4.50
2018-07-23T06:27:42.178Z,9.73
2018-07-23T06:28:16.034Z,5.43
2018-07-23T06:28:49.924Z,6.20
2018-07-23T06:29:23.802Z,7.17
2018-07-23T06:29:57.716Z,7.97
2018-07-23T06:30:31.599Z,8.23
2018-07-23T06:31:05.906Z,6.43
2018-07-23T06:31:39.999Z,9.90
2018-07-23T06:32:14.349Z,12.53
2018-07-23T06:32:48.376Z,7.60
2018-07-23T06:33:22.252Z,7.80
2018-07-23T06:33:56.313Z,9.00
2018-07-23T06:34:30.667Z,4.97
2018-07-23T06:35:04.610Z,5.33
2018-07-23T06:35:38.489Z,5.50
2018-07-23T06:36:12.418Z,4.50
2018-07-23T06:36:46.332Z,10.80
2018-07-23T06:37:20.230Z,6.37
2018-07-23T06:37:54.484Z,10.93
2018-07-23T06:38:28.386Z,7.10
2018-07-23T06:39:02.675Z,11.40
2018-07-23T06:39:36.932Z,8.33
2018-07-23T06:40:10.860Z,10.17
2018-07-23T06:40:44.768Z,6.60
2018-07-23T06:41:18.672Z,9.70
2018-07-23T06:41:54.186Z,5.43
2018-07-23T06:42:28.794Z,6.27
2018-07-23T06:43:02.669Z,6.10
2018-07-23T06:43:36.918Z,7.37
2018-07-23T06:44:10.827Z,10.13
2018-07-23T06:44:44.687Z,10.30
2018-07-23T06:45:18.640Z,8.03
2018-07-23T06:45:52.872Z,6.50
2018-07-23T06:46:26.728Z,10.53
2018-07-23T06:47:01.056Z,6.70
2018-07-23T06:47:34.912Z,6.03
2018-07-23T06:48:09.180Z,8.27
2018-07-23T06:48:43.086Z,5.60
2018-07-23T06:49:16.987Z,7.50
2018-07-23T06:49:50.858Z,9.93
2018-07-23T06:50:24.768Z,6.63
2018-07-23T06:50:58.633Z,14.10
2018-07-23T06:51:32.882Z,13.97
2018-07-23T06:52:07.628Z,5.70
2018-07-23T06:52:48.131Z,9.30
2018-07-23T06:53:22.074Z,7.90
2018-07-23T06:53:55.750Z,7.93
2018-07-23T06:54:29.718Z,17.00
2018-07-23T06:55:03.930Z,8.80
2018-07-23T06:55:37.813Z,8.03
2018-07-23T06:56:11.695Z,5.53
2018-07-23T06:56:45.643Z,10.20
2018-07-23T06:57:19.569Z,8.70
2018-07-23T06:57:53.698Z,4.93
2018-07-23T06:58:27.575Z,6.90
2018-07-23T06:59:01.797Z,8.40
2018-07-23T06:59:36.280Z,8.07
2018-07-23T07:00:10.828Z,9.30
2018-07-23T07:00:44.705Z,5.50
2018-07-23T07:01:18.586Z,5.83
2018-07-23T07:01:52.806Z,7.50
2018-07-23T07:02:26.999Z,7.67
2018-07-23T07:03:00.898Z,5.90
2018-07-23T07:03:35.081Z,5.83
2018-07-23T07:04:09.087Z,4.63
2018-07-23T07:04:42.972Z,6.13
2018-07-23T08:25:20.665Z,8.30
2018-07-23T08:25:54.641Z,8.60
2018-07-23T08:26:28.519Z,7.03
2018-07-23T08:27:02.392Z,6.47
2018-07-23T08:27:36.333Z,9.13
2018-07-23T08:28:10.870Z,7.30
2018-07-23T08:28:45.301Z,6.33
2018-07-23T08:29:19.599Z,3.90
2018-07-23T08:29:53.497Z,7.83
2018-07-23T08:30:27.765Z,32.30
2018-07-23T08:31:01.679Z,11.27
2018-07-23T08:31:35.601Z,10.27
2018-07-23T08:32:10.231Z,25.00
2018-07-23T08:32:44.488Z,13.80
2018-07-23T08:33:18.378Z,13.33
2018-07-23T08:33:52.353Z,15.47
2018-07-23T08:34:26.245Z,6.63
2018-07-23T08:35:00.101Z,8.40
2018-07-23T08:35:34.299Z,10.43
2018-07-23T08:36:08.499Z,6.77
2018-07-23T08:36:42.439Z,5.30
2018-07-23T08:37:16.408Z,17.30
2018-07-23T08:37:51.121Z,12.40
2018-07-23T08:38:24.999Z,7.23
2018-07-23T08:38:59.117Z,7.83
2018-07-23T08:39:33.055Z,12.90
2018-07-23T08:40:07.203Z,7.23
2018-07-23T08:40:41.108Z,10.10
2018-07-23T08:41:14.957Z,6.40
2018-07-23T08:41:48.791Z,6.93
2018-07-23T08:42:22.707Z,7.60
2018-07-23T08:42:56.557Z,5.03
2018-07-23T08:43:30.405Z,5.47
2018-07-23T08:44:04.277Z,5.67